Time;durP1;ratioP1;P1;durP2;ratioP2;P2;SDS_P1;SDS_P2;PMS_P1;PMS_P2;Temp;Humidity;BMP_temperature;BMP_pressure;BME280_temperature;BME280_humidity;BME280_pressure;Samples;Min_cycle;Max_cycle;Signal;HPM_P1;HPM_P2
2023/07/16 00:01:16;;;;;;;6.40;2.50;;;22.10;98.00;;;;;;5012444;28;20463;-63
2023/07/16 00:03:43;;;;;;;5.03;2.70;;;22.30;98.00;;;;;;5011189;28;20460;-63
2023/07/16 00:06:10;;;;;;;4.80;2.90;;;22.30;98.00;;;;;;5011116;28;20534;-63
2023/07/16 00:08:39;;;;;;;4.23;2.70;;;22.30;98.00;;;;;;5012400;28;20456;-63
2023/07/16 00:11:06;;;;;;;3.27;2.50;;;22.30;98.00;;;;;;5010784;28;20454;-64
2023/07/16 00:13:33;;;;;;;5.17;2.70;;;22.40;98.00;;;;;;5012180;28;20942;-63
2023/07/16 00:16:00;;;;;;;4.27;2.33;;;22.50;98.00;;;;;;5012019;28;20506;-63
2023/07/16 00:18:27;;;;;;;5.00;2.80;;;22.30;98.00;;;;;;5012041;28;20452;-63
2023/07/16 00:20:55;;;;;;;3.57;2.20;;;22.10;98.00;;;;;;5011943;28;20462;-63
2023/07/16 00:23:22;;;;;;;3.77;2.50;;;21.90;98.00;;;;;;4994727;28;20463;-63
2023/07/16 00:25:52;;;;;;;2.67;2.13;;;21.90;98.00;;;;;;5010877;28;20816;-63
2023/07/16 00:28:19;;;;;;;5.70;2.77;;;21.80;98.00;;;;;;5011794;28;20459;-63
2023/07/16 00:30:46;;;;;;;3.87;2.20;;;21.80;98.00;;;;;;5011821;28;20464;-63
2023/07/16 00:33:13;;;;;;;4.33;2.50;;;21.70;98.00;;;;;;5011321;28;20462;-63
2023/07/16 00:35:40;;;;;;;3.10;2.30;;;21.60;98.00;;;;;;5011648;28;20475;-63
2023/07/16 00:38:07;;;;;;;2.90;2.10;;;21.50;98.00;;;;;;5010551;28;20501;-63
2023/07/16 00:40:34;;;;;;;2.53;2.10;;;21.40;98.00;;;;;;5011738;28;20483;-63
2023/07/16 00:43:03;;;;;;;2.97;2.07;;;21.50;98.00;;;;;;5010678;28;20506;-63
2023/07/16 00:45:30;;;;;;;2.67;2.00;;;21.50;98.00;;;;;;5010211;28;20479;-63
2023/07/16 00:47:58;;;;;;;3.53;2.13;;;21.60;98.00;;;;;;5011493;28;20505;-63
2023/07/16 00:50:25;;;;;;;3.43;2.40;;;21.60;98.00;;;;;;5011732;28;20484;-63
2023/07/16 00:52:53;;;;;;;3.20;2.10;;;21.70;98.00;;;;;;5011588;28;20459;-63
2023/07/16 00:55:21;;;;;;;2.80;2.17;;;21.90;98.00;;;;;;5011423;28;20950;-63
2023/07/16 00:57:48;;;;;;;3.10;2.40;;;21.60;98.00;;;;;;5011667;28;20467;-63
2023/07/16 01:00:19;;;;;;;5.07;2.40;;;21.50;98.00;;;;;;5011629;28;20512;-63
2023/07/16 01:02:46;;;;;;;6.70;2.30;;;21.50;98.00;;;;;;5010649;28;20592;-63
2023/07/16 01:05:14;;;;;;;2.93;2.23;;;21.40;98.00;;;;;;5010303;28;20451;-63
2023/07/16 01:07:50;;;;;;;3.00;2.00;;;21.30;98.00;;;;;;5010859;28;20954;-63
2023/07/16 01:10:18;;;;;;;2.60;1.93;;;21.30;98.00;;;;;;5011366;28;20459;-63
2023/07/16 01:13:05;;;;;;;2.93;2.10;;;21.40;98.00;;;;;;5011278;28;20456;-63
2023/07/16 01:15:34;;;;;;;2.97;2.20;;;21.50;98.00;;;;;;5011222;28;20459;-63
2023/07/16 01:18:01;;;;;;;2.10;1.90;;;21.40;98.00;;;;;;5011434;28;20454;-63
2023/07/16 01:20:28;;;;;;;2.50;1.90;;;21.40;98.00;;;;;;5011155;28;20457;-63
2023/07/16 01:23:35;;;;;;;2.47;2.00;;;21.40;98.00;;;;;;5010037;28;20474;-64
2023/07/16 01:26:19;;;;;;;2.57;2.00;;;21.50;98.00;;;;;;5006316;28;20455;-63
2023/07/16 01:29:06;;;;;;;2.90;1.87;;;21.50;98.00;;;;;;5011214;28;20460;-63
2023/07/16 01:31:35;;;;;;;2.13;1.90;;;21.40;98.00;;;;;;5011093;28;20478;-63
2023/07/16 01:34:05;;;;;;;5.33;2.10;;;21.40;98.00;;;;;;5011111;28;20463;-63
2023/07/16 01:36:33;;;;;;;3.37;1.80;;;21.50;98.00;;;;;;5011057;28;20483;-63
2023/07/16 01:39:00;;;;;;;2.30;1.90;;;21.40;98.00;;;;;;5011195;28;20571;-63
2023/07/16 01:41:28;;;;;;;2.73;2.17;;;21.50;98.00;;;;;;5011005;28;20542;-64
2023/07/16 01:43:55;;;;;;;2.57;1.87;;;21.40;98.00;;;;;;5010417;28;20970;-63
2023/07/16 01:46:23;;;;;;;3.27;1.70;;;21.40;98.00;;;;;;5013492;28;20463;-63
2023/07/16 01:48:50;;;;;;;2.70;1.73;;;21.30;98.00;;;;;;5014868;28;20455;-63
2023/07/16 01:51:18;;;;;;;2.73;1.73;;;21.40;98.00;;;;;;5014666;28;20459;-63
2023/07/16 01:53:44;;;;;;;2.53;1.70;;;21.50;98.00;;;;;;5015036;28;20878;-63
2023/07/16 01:56:12;;;;;;;3.67;2.10;;;21.50;98.00;;;;;;5014913;28;20490;-63
2023/07/16 01:58:39;;;;;;;2.40;2.00;;;21.30;98.00;;;;;;5013448;28;20459;-63
2023/07/16 02:01:06;;;;;;;1.73;1.60;;;21.30;98.00;;;;;;5014595;28;20456;-63
2023/07/16 02:03:35;;;;;;;1.97;1.80;;;21.20;98.00;;;;;;5014559;28;20748;-63
2023/07/16 02:06:02;;;;;;;2.50;1.80;;;21.10;98.00;;;;;;5013265;28;20451;-63
2023/07/16 02:08:30;;;;;;;2.60;1.90;;;21.10;98.00;;;;;;5014330;28;20459;-63
2023/07/16 02:10:57;;;;;;;3.50;1.83;;;21.10;98.00;;;;;;5013254;28;20464;-63
2023/07/16 02:13:24;;;;;;;2.10;1.63;;;21.10;98.00;;;;;;5013113;28;20454;-63
2023/07/16 02:15:51;;;;;;;2.00;1.77;;;21.20;98.00;;;;;;5014298;28;20543;-63
2023/07/16 02:18:18;;;;;;;1.77;1.60;;;21.20;98.00;;;;;;5014151;28;20451;-64
2023/07/16 02:20:47;;;;;;;2.10;1.80;;;21.20;98.00;;;;;;5014288;28;20871;-63
2023/07/16 02:23:14;;;;;;;2.50;2.00;;;21.10;98.00;;;;;;5014165;28;20447;-63
2023/07/16 02:25:41;;;;;;;2.10;1.70;;;21.30;98.00;;;;;;5014026;28;21003;-63
2023/07/16 02:28:08;;;;;;;1.83;1.70;;;21.20;98.00;;;;;;5013698;28;20464;-63
2023/07/16 02:30:35;;;;;;;1.97;1.60;;;21.20;98.00;;;;;;5014048;28;20463;-63
2023/07/16 02:33:02;;;;;;;2.00;1.80;;;21.20;98.00;;;;;;5014162;28;20455;-63
2023/07/16 02:35:29;;;;;;;3.03;2.00;;;21.20;98.00;;;;;;5014063;28;20896;-63
2023/07/16 02:37:58;;;;;;;2.13;1.70;;;21.20;98.00;;;;;;5014002;28;20533;-63
2023/07/16 02:40:25;;;;;;;2.67;1.87;;;21.20;98.00;;;;;;5013850;28;20490;-63
2023/07/16 02:42:52;;;;;;;3.60;2.13;;;21.20;98.00;;;;;;5013914;28;20483;-63
2023/07/16 02:45:19;;;;;;;2.20;1.77;;;21.40;98.00;;;;;;5013642;28;20467;-63
2023/07/16 02:47:46;;;;;;;2.50;1.80;;;21.30;98.00;;;;;;5013915;28;20455;-63
2023/07/16 02:50:13;;;;;;;1.93;1.70;;;21.20;98.00;;;;;;5014003;28;20800;-63
2023/07/16 02:52:40;;;;;;;2.30;1.97;;;21.10;98.00;;;;;;5013712;28;20451;-63
2023/07/16 02:55:10;;;;;;;2.53;2.00;;;21.20;98.00;;;;;;5011981;28;20463;-63
2023/07/16 02:57:37;;;;;;;2.30;1.80;;;21.20;98.00;;;;;;5013283;28;20487;-63
2023/07/16 03:00:06;;;;;;;3.60;1.80;;;21.20;98.00;;;;;;5013583;28;20452;-64
2023/07/16 03:02:33;;;;;;;2.07;1.67;;;21.10;98.00;;;;;;5012169;28;21005;-63
2023/07/16 03:05:00;;;;;;;10.63;1.90;;;21.20;98.00;;;;;;5013435;28;20463;-63
2023/07/16 03:07:27;;;;;;;3.50;1.90;;;21.10;98.00;;;;;;5012038;28;20451;-63
2023/07/16 03:09:56;;;;;;;2.37;1.67;;;21.00;98.00;;;;;;5013501;28;20514;-63
2023/07/16 03:12:24;;;;;;;2.00;1.80;;;21.00;98.00;;;;;;5011825;28;20477;-63
2023/07/16 03:14:54;;;;;;;3.67;1.93;;;20.90;98.00;;;;;;5013369;28;20478;-63
2023/07/16 03:17:21;;;;;;;2.20;1.70;;;20.80;98.00;;;;;;5013017;28;20502;-63
2023/07/16 03:19:48;;;;;;;1.97;1.63;;;20.80;98.00;;;;;;5013109;28;20559;-63
2023/07/16 03:22:17;;;;;;;2.50;1.93;;;20.70;98.00;;;;;;5013080;28;20456;-63
2023/07/16 03:24:44;;;;;;;2.30;1.80;;;20.60;98.00;;;;;;5011583;28;20462;-63
2023/07/16 03:27:16;;;;;;;2.00;1.60;;;20.50;98.00;;;;;;5012960;28;20878;-63
2023/07/16 03:29:45;;;;;;;3.50;1.83;;;20.30;98.00;;;;;;5012001;28;20463;-62
2023/07/16 03:32:12;;;;;;;2.40;1.90;;;20.30;98.00;;;;;;5012824;28;20444;-63
2023/07/16 03:34:39;;;;;;;1.90;1.50;;;20.40;98.00;;;;;;5012797;28;20447;-63
2023/07/16 03:37:06;;;;;;;3.40;1.80;;;20.40;98.00;;;;;;5012720;28;20491;-63
2023/07/16 03:39:33;;;;;;;1.83;1.60;;;20.50;98.00;;;;;;5012788;28;20463;-63
2023/07/16 03:42:00;;;;;;;1.90;1.57;;;20.50;98.00;;;;;;5012794;28;20460;-63
2023/07/16 03:44:27;;;;;;;3.10;1.83;;;20.50;98.00;;;;;;5011772;28;20478;-63
2023/07/16 03:46:56;;;;;;;2.77;1.87;;;20.50;98.00;;;;;;5012588;28;20478;-63
2023/07/16 03:49:23;;;;;;;3.20;1.87;;;20.30;98.00;;;;;;5012653;28;20525;-63
2023/07/16 03:51:50;;;;;;;2.17;1.70;;;20.10;98.00;;;;;;5012515;28;20455;-63
2023/07/16 03:54:17;;;;;;;3.63;1.97;;;20.00;98.00;;;;;;5012437;28;20456;-63
2023/07/16 03:56:44;;;;;;;2.70;2.00;;;20.00;98.00;;;;;;5012324;28;20483;-63
2023/07/16 03:59:11;;;;;;;2.50;1.50;;;19.90;98.00;;;;;;5012484;28;20478;-63
2023/07/16 04:01:40;;;;;;;2.10;1.60;;;20.00;98.00;;;;;;5012236;28;20466;-63
2023/07/16 04:04:08;;;;;;;4.37;1.70;;;20.00;98.00;;;;;;4995108;28;20451;-63
2023/07/16 04:06:35;;;;;;;2.17;1.70;;;20.00;98.00;;;;;;5011577;28;20471;-63
2023/07/16 04:09:02;;;;;;;2.80;1.80;;;19.90;98.00;;;;;;5012281;28;20896;-63
2023/07/16 04:11:29;;;;;;;2.20;1.80;;;19.90;98.00;;;;;;5012099;28;20456;-62
2023/07/16 04:13:56;;;;;;;2.10;1.80;;;19.90;98.00;;;;;;5012166;28;20467;-63
2023/07/16 04:16:23;;;;;;;2.77;1.70;;;19.80;98.00;;;;;;5012004;28;20883;-63
2023/07/16 04:18:50;;;;;;;2.13;1.60;;;19.80;98.00;;;;;;5012206;28;20459;-62
2023/07/16 04:21:19;;;;;;;2.67;1.60;;;19.90;98.00;;;;;;5011950;28;20522;-63
2023/07/16 04:23:46;;;;;;;2.57;1.80;;;19.90;98.00;;;;;;5011983;28;20531;-63
2023/07/16 04:26:13;;;;;;;2.10;1.60;;;19.80;98.00;;;;;;5012073;28;20452;-63
2023/07/16 04:28:40;;;;;;;3.30;1.97;;;19.90;98.00;;;;;;5011701;28;20459;-63
2023/07/16 04:31:07;;;;;;;2.83;1.70;;;19.80;98.00;;;;;;5011907;28;20491;-62
2023/07/16 04:33:34;;;;;;;2.57;1.70;;;19.80;98.00;;;;;;5011831;28;20867;-63
2023/07/16 04:36:01;;;;;;;2.70;1.90;;;19.60;98.00;;;;;;5010862;28;20447;-63
2023/07/16 04:38:30;;;;;;;3.10;1.87;;;19.40;98.00;;;;;;5011940;28;20487;-62
2023/07/16 04:40:57;;;;;;;2.40;1.80;;;19.30;98.00;;;;;;5012027;28;20839;-63
2023/07/16 04:43:24;;;;;;;2.47;1.70;;;19.40;98.00;;;;;;5011653;28;20452;-63
2023/07/16 04:45:51;;;;;;;3.57;1.80;;;19.40;98.00;;;;;;5011704;28;20466;-63
2023/07/16 04:48:18;;;;;;;3.80;1.70;;;19.50;98.00;;;;;;5010395;28;20506;-63
2023/07/16 04:50:45;;;;;;;2.10;1.50;;;19.70;98.00;;;;;;5011689;28;20478;-63
2023/07/16 04:53:12;;;;;;;5.33;2.43;;;19.80;98.00;;;;;;5010460;28;20458;-63
2023/07/16 04:55:41;;;;;;;10.37;2.07;;;19.90;98.00;;;;;;5011634;28;20451;-63
2023/07/16 04:58:10;;;;;;;2.53;1.93;;;20.00;98.00;;;;;;5011355;28;20488;-63
2023/07/16 05:00:37;;;;;;;2.10;1.67;;;20.00;98.00;;;;;;5010318;28;20818;-63
2023/07/16 05:03:04;;;;;;;2.10;1.60;;;20.00;98.00;;;;;;5011695;28;20456;-63
2023/07/16 05:05:31;;;;;;;2.20;1.73;;;20.10;98.00;;;;;;5011432;28;20467;-63
2023/07/16 05:07:58;;;;;;;4.07;1.83;;;20.00;98.00;;;;;;5011649;28;20467;-63
2023/07/16 05:10:25;;;;;;;2.47;1.80;;;20.10;98.00;;;;;;5011285;28;20459;-63
2023/07/16 05:12:54;;;;;;;4.90;1.90;;;20.00;98.00;;;;;;4994064;28;20468;-62
2023/07/16 05:15:22;;;;;;;5.80;1.73;;;20.10;98.00;;;;;;5011315;28;20456;-63
2023/07/16 05:17:50;;;;;;;2.40;1.97;;;20.10;98.00;;;;;;5011816;28;20511;-63
2023/07/16 05:20:17;;;;;;;3.97;1.60;;;20.10;98.00;;;;;;5015339;28;20454;-62
2023/07/16 05:22:44;;;;;;;2.33;1.87;;;20.10;98.00;;;;;;5015287;28;20826;-63
2023/07/16 05:25:11;;;;;;;2.60;1.90;;;20.30;98.00;;;;;;5015298;28;20451;-63
2023/07/16 05:27:38;;;;;;;2.10;1.90;;;20.30;98.00;;;;;;5015309;28;20542;-63
2023/07/16 05:30:07;;;;;;;2.13;1.77;;;20.60;98.00;;;;;;5015285;28;20455;-63
2023/07/16 05:32:37;;;;;;;4.70;2.17;;;20.70;98.00;;;;;;5015302;28;20455;-63
2023/07/16 05:35:05;;;;;;;2.97;2.00;;;20.50;98.00;;;;;;5015340;28;20485;-63
2023/07/16 05:37:32;;;;;;;2.40;1.90;;;20.40;98.00;;;;;;5013665;28;20479;-63
2023/07/16 05:39:59;;;;;;;3.30;2.07;;;20.40;98.00;;;;;;5014911;28;20459;-63
2023/07/16 05:42:26;;;;;;;2.40;1.80;;;20.30;98.00;;;;;;5014835;28;20452;-63
2023/07/16 05:44:53;;;;;;;2.50;1.97;;;20.30;98.00;;;;;;5014806;28;20875;-63
2023/07/16 05:47:21;;;;;;;2.40;1.87;;;20.30;98.00;;;;;;5013593;28;20466;-63
2023/07/16 05:49:48;;;;;;;6.33;2.00;;;20.40;98.00;;;;;;5014677;28;20459;-63
2023/07/16 05:52:15;;;;;;;3.20;1.93;;;20.50;98.00;;;;;;5014669;28;20463;-63
2023/07/16 05:54:44;;;;;;;3.70;2.20;;;20.50;98.00;;;;;;5014639;28;20447;-63
2023/07/16 05:57:12;;;;;;;2.00;1.77;;;20.50;98.00;;;;;;5014695;28;20943;-63
2023/07/16 05:59:39;;;;;;;3.37;1.80;;;20.50;98.00;;;;;;5014560;28;20845;-64
2023/07/16 06:02:06;;;;;;;3.50;2.00;;;20.70;98.00;;;;;;5014544;28;20509;-63
2023/07/16 06:04:35;;;;;;;4.53;2.10;;;20.80;98.00;;;;;;5014451;28;20482;-63
2023/07/16 06:07:03;;;;;;;2.33;1.80;;;20.90;98.00;;;;;;5014424;28;20892;-63
2023/07/16 06:09:30;;;;;;;2.80;1.80;;;20.80;98.00;;;;;;5014388;28;20455;-63
2023/07/16 06:11:57;;;;;;;2.33;1.67;;;20.70;98.00;;;;;;5014463;28;20882;-63
2023/07/16 06:14:24;;;;;;;2.07;1.80;;;20.70;98.00;;;;;;5012975;28;20462;-63
2023/07/16 06:16:52;;;;;;;2.23;1.70;;;20.90;98.00;;;;;;5013203;28;21150;-63
2023/07/16 06:19:19;;;;;;;2.30;1.83;;;20.80;98.00;;;;;;5014219;28;20459;-63
2023/07/16 06:21:47;;;;;;;2.70;2.07;;;21.00;98.00;;;;;;5014301;28;20470;-63
2023/07/16 06:24:14;;;;;;;2.67;1.80;;;21.10;98.00;;;;;;5014449;28;20529;-63
2023/07/16 06:26:41;;;;;;;1.90;1.70;;;21.20;98.00;;;;;;5013139;28;20459;-63
2023/07/16 06:29:09;;;;;;;2.00;1.60;;;21.10;98.00;;;;;;5014009;28;20949;-63
2023/07/16 06:31:36;;;;;;;2.43;1.80;;;20.90;98.00;;;;;;5013573;28;20542;-63
2023/07/16 06:34:03;;;;;;;2.47;1.80;;;20.80;98.00;;;;;;5012833;28;20455;-63
2023/07/16 06:36:30;;;;;;;2.63;2.00;;;20.70;98.00;;;;;;5013934;28;20811;-63
2023/07/16 06:39:00;;;;;;;1.90;1.60;;;20.80;98.00;;;;;;5014064;28;20483;-63
2023/07/16 06:41:30;;;;;;;3.50;1.63;;;20.80;98.00;;;;;;5013798;28;20893;-63
2023/07/16 06:43:57;;;;;;;2.50;1.90;;;20.70;98.00;;;;;;5014040;28;20491;-63
2023/07/16 06:46:24;;;;;;;3.50;2.00;;;20.90;98.00;;;;;;5013612;28;20472;-63
2023/07/16 06:48:51;;;;;;;6.90;2.07;;;21.00;98.00;;;;;;5013952;28;20491;-63
2023/07/16 06:51:18;;;;;;;2.03;1.80;;;21.00;98.00;;;;;;5013555;28;20516;-63
2023/07/16 06:53:45;;;;;;;2.53;1.90;;;21.00;98.00;;;;;;5013557;28;20456;-63
2023/07/16 06:56:14;;;;;;;8.00;2.10;;;21.10;98.00;;;;;;5013646;28;21044;-63
2023/07/16 06:58:41;;;;;;;4.03;1.77;;;21.20;98.00;;;;;;5013195;28;21057;-63
2023/07/16 07:01:08;;;;;;;2.43;1.90;;;21.10;98.00;;;;;;5012303;28;20470;-63
2023/07/16 07:03:35;;;;;;;2.10;1.60;;;21.30;98.00;;;;;;5012250;28;20958;-63
2023/07/16 07:06:03;;;;;;;3.90;2.20;;;21.30;98.00;;;;;;5012274;28;20543;-63
2023/07/16 07:08:31;;;;;;;2.00;1.70;;;21.30;98.00;;;;;;5013272;28;20459;-63
2023/07/16 07:10:58;;;;;;;7.40;2.10;;;21.40;98.00;;;;;;5013265;28;20855;-63
2023/07/16 07:13:27;;;;;;;3.33;1.70;;;21.40;98.00;;;;;;5013360;28;20458;-63
2023/07/16 07:15:54;;;;;;;4.67;2.27;;;21.40;98.00;;;;;;5013265;28;20451;-63
2023/07/16 07:18:21;;;;;;;4.20;2.27;;;21.50;98.00;;;;;;5012046;28;20554;-63
2023/07/16 07:20:48;;;;;;;2.57;1.90;;;21.50;98.00;;;;;;5012304;28;20460;-63
2023/07/16 07:23:16;;;;;;;3.23;1.90;;;21.60;98.00;;;;;;5013194;28;20479;-65
2023/07/16 07:25:43;;;;;;;3.30;1.70;;;21.60;98.00;;;;;;5011884;28;20459;-62
2023/07/16 07:28:10;;;;;;;2.50;1.93;;;21.60;98.00;;;;;;5012984;28;20467;-63
2023/07/16 07:30:39;;;;;;;3.60;2.00;;;21.70;98.00;;;;;;5013092;28;20463;-63
2023/07/16 07:33:06;;;;;;;6.10;1.87;;;21.80;98.00;;;;;;5012854;28;20452;-63
2023/07/16 07:35:33;;;;;;;3.77;2.17;;;21.90;98.00;;;;;;5012785;28;20886;-63
2023/07/16 07:38:01;;;;;;;2.83;2.10;;;21.90;98.00;;;;;;5012649;28;20479;-63
2023/07/16 07:40:28;;;;;;;2.93;1.80;;;22.00;98.00;;;;;;5010187;28;20471;-63
2023/07/16 07:42:55;;;;;;;4.07;2.00;;;22.00;98.00;;;;;;5012810;28;20470;-63
2023/07/16 07:45:25;;;;;;;4.07;2.10;;;21.80;98.00;;;;;;5012375;28;20522;-63
2023/07/16 07:47:53;;;;;;;3.30;1.70;;;21.90;98.00;;;;;;5012463;28;20468;-63
2023/07/16 07:50:21;;;;;;;3.00;1.80;;;21.90;98.00;;;;;;5012645;28;20460;-63
2023/07/16 07:52:48;;;;;;;2.67;2.00;;;22.10;98.00;;;;;;5012312;28;20452;-63
2023/07/16 07:55:18;;;;;;;6.33;2.07;;;22.20;98.00;;;;;;5012603;28;20456;-63
2023/07/16 07:57:45;;;;;;;3.90;1.90;;;22.20;98.00;;;;;;5012265;28;20573;-63
2023/07/16 08:00:15;;;;;;;2.73;1.97;;;22.20;98.00;;;;;;5012674;28;20521;-63
2023/07/16 08:02:42;;;;;;;3.43;1.83;;;22.10;98.00;;;;;;5012405;28;20459;-63
2023/07/16 08:05:11;;;;;;;2.17;1.70;;;21.90;98.00;;;;;;5012207;28;20456;-63
2023/07/16 08:07:38;;;;;;;2.30;1.80;;;21.90;98.00;;;;;;5012219;28;20459;-63
2023/07/16 08:10:06;;;;;;;2.97;1.70;;;22.00;98.00;;;;;;5012410;28;20463;-63
2023/07/16 08:12:33;;;;;;;3.03;1.80;;;22.10;98.00;;;;;;5012341;28;20451;-63
2023/07/16 08:15:00;;;;;;;3.47;2.10;;;22.00;98.00;;;;;;5012433;28;20460;-63
2023/07/16 08:17:28;;;;;;;4.80;2.00;;;21.90;98.00;;;;;;5012226;28;20455;-63
2023/07/16 08:19:55;;;;;;;2.97;2.13;;;21.80;98.00;;;;;;5012014;28;20495;-63
2023/07/16 08:22:24;;;;;;;3.70;2.00;;;21.80;98.00;;;;;;5012156;28;20455;-63
2023/07/16 08:24:52;;;;;;;2.00;1.60;;;21.90;98.00;;;;;;5012204;28;20800;-64
2023/07/16 08:27:19;;;;;;;4.43;2.30;;;21.90;98.00;;;;;;5011854;28;20455;-63
2023/07/16 08:29:46;;;;;;;1.93;1.67;;;22.10;98.00;;;;;;5011920;28;20538;-63
2023/07/16 08:32:13;;;;;;;3.53;2.10;;;22.30;98.00;;;;;;5011984;28;20862;-63
2023/07/16 08:34:40;;;;;;;3.03;1.80;;;22.50;98.00;;;;;;5010535;28;20479;-63
2023/07/16 08:37:07;;;;;;;2.73;2.00;;;22.60;98.00;;;;;;5010538;28;20456;-63
2023/07/16 08:39:36;;;;;;;4.67;2.20;;;22.70;98.00;;;;;;5011631;28;20850;-63
2023/07/16 08:42:03;;;;;;;3.60;2.13;;;22.80;98.00;;;;;;5011635;28;20962;-63
2023/07/16 08:44:31;;;;;;;3.10;1.80;;;22.80;98.00;;;;;;5010393;28;20462;-63
2023/07/16 08:46:58;;;;;;;3.17;1.93;;;22.90;98.00;;;;;;5010456;28;20474;-63
2023/07/16 08:49:29;;;;;;;4.67;2.03;;;23.00;98.00;;;;;;5010184;28;20884;-63
2023/07/16 08:51:57;;;;;;;4.47;2.00;;;23.20;98.00;;;;;;5011763;28;20459;-63
2023/07/16 08:54:25;;;;;;;2.30;1.90;;;23.40;98.00;;;;;;5011342;28;20451;-63
2023/07/16 08:57:05;;;;;;;1.93;1.63;;;23.50;98.00;;;;;;5010621;28;20540;-63
2023/07/16 08:59:33;;;;;;;2.90;1.80;;;23.70;98.00;;;;;;5010715;28;20479;-63
2023/07/16 09:02:00;;;;;;;3.20;2.10;;;23.60;98.00;;;;;;5011489;28;20455;-63
2023/07/16 09:04:29;;;;;;;2.63;1.93;;;23.60;98.00;;;;;;5011442;28;20961;-63
2023/07/16 09:06:56;;;;;;;3.17;2.10;;;23.60;98.00;;;;;;5011619;28;20463;-64
2023/07/16 09:09:24;;;;;;;3.37;2.10;;;23.80;98.00;;;;;;5010515;28;20974;-63
2023/07/16 09:11:52;;;;;;;2.67;2.00;;;23.90;98.00;;;;;;5011689;28;20857;-63
2023/07/16 09:14:21;;;;;;;3.50;2.20;;;23.90;98.00;;;;;;5011401;28;20456;-63
2023/07/16 09:16:50;;;;;;;3.80;2.30;;;23.90;98.00;;;;;;5011616;28;20765;-64
2023/07/16 09:19:18;;;;;;;3.13;2.03;;;23.70;98.00;;;;;;5011306;28;20852;-63
2023/07/16 09:21:48;;;;;;;3.30;1.70;;;23.70;98.00;;;;;;5011343;28;20447;-63
2023/07/16 09:24:15;;;;;;;4.60;2.47;;;23.50;98.00;;;;;;5011430;28;20472;-63
2023/07/16 09:26:50;;;;;;;6.50;2.17;;;23.40;98.00;;;;;;5011069;28;20458;-64
2023/07/16 09:29:18;;;;;;;5.77;1.97;;;23.20;98.00;;;;;;5011271;28;20565;-64
2023/07/16 09:32:00;;;;;;;2.67;2.00;;;23.40;98.00;;;;;;5011145;28;20459;-63
2023/07/16 09:34:29;;;;;;;2.80;2.00;;;23.60;98.00;;;;;;5011148;28;20467;-63
2023/07/16 09:36:57;;;;;;;2.10;2.00;;;23.80;98.00;;;;;;5011081;28;20546;-63
2023/07/16 09:39:25;;;;;;;3.30;2.27;;;23.80;98.00;;;;;;5011151;28;21005;-63
2023/07/16 09:41:53;;;;;;;3.07;2.10;;;24.10;98.00;;;;;;5011247;28;20471;-64
2023/07/16 09:44:21;;;;;;;2.37;1.90;;;24.40;98.00;;;;;;5011049;28;20452;-63
2023/07/16 09:46:48;;;;;;;4.13;2.37;;;24.30;98.00;;;;;;5010970;28;20478;-63
2023/07/16 09:49:16;;;;;;;3.17;2.10;;;24.20;98.00;;;;;;5011064;28;20459;-63
2023/07/16 09:51:45;;;;;;;5.00;2.60;;;24.20;98.00;;;;;;5011225;28;20861;-63
2023/07/16 09:54:14;;;;;;;3.20;2.20;;;23.90;98.00;;;;;;5011077;28;20973;-63
2023/07/16 09:56:45;;;;;;;3.00;2.27;;;24.00;98.00;;;;;;5010956;28;20559;-64
2023/07/16 09:59:15;;;;;;;4.20;2.30;;;24.30;98.00;;;;;;5011109;28;20578;-63
2023/07/16 10:01:44;;;;;;;4.63;2.00;;;24.60;98.00;;;;;;5011148;28;20455;-63
2023/07/16 10:04:16;;;;;;;4.00;2.40;;;24.80;98.00;;;;;;5009957;28;20475;-63
2023/07/16 10:06:56;;;;;;;3.17;2.10;;;24.70;98.00;;;;;;5014320;28;20455;-63
2023/07/16 10:09:34;;;;;;;3.40;2.10;;;24.50;98.00;;;;;;5013282;28;20459;-63
2023/07/16 10:12:17;;;;;;;3.77;2.30;;;24.70;98.00;;;;;;5014441;28;20455;-63
2023/07/16 10:14:47;;;;;;;2.87;2.03;;;25.00;98.00;;;;;;5014385;28;20467;-63
2023/07/16 10:17:17;;;;;;;3.90;2.33;;;25.30;98.00;;;;;;5014541;28;20501;-63
2023/07/16 10:19:51;;;;;;;2.70;2.10;;;25.50;98.00;;;;;;5014309;28;20491;-64
2023/07/16 10:22:20;;;;;;;7.77;2.87;;;25.50;96.70;;;;;;5014150;28;20458;-64
2023/07/16 10:24:53;;;;;;;3.30;2.40;;;25.50;97.20;;;;;;5014103;28;20479;-64
2023/07/16 10:27:31;;;;;;;2.30;1.80;;;25.80;98.00;;;;;;5014124;28;20495;-63
2023/07/16 10:29:59;;;;;;;3.87;2.43;;;25.90;95.80;;;;;;5014048;28;20463;-63
2023/07/16 10:32:30;;;;;;;3.67;1.97;;;26.00;94.30;;;;;;5013893;28;20456;-63
2023/07/16 10:34:57;;;;;;;4.20;2.40;;;26.00;94.70;;;;;;5014055;28;20462;-64
2023/07/16 10:37:25;;;;;;;5.00;1.90;;;25.80;94.40;;;;;;5013871;28;20478;-64
2023/07/16 10:39:56;;;;;;;2.67;2.00;;;25.70;96.70;;;;;;5013694;28;20491;-63
2023/07/16 10:42:25;;;;;;;2.77;2.10;;;25.90;95.40;;;;;;5013895;28;20510;-63
2023/07/16 10:44:54;;;;;;;2.80;1.90;;;26.20;94.10;;;;;;5013712;28;20461;-63
2023/07/16 10:47:23;;;;;;;3.13;2.13;;;26.40;94.60;;;;;;5013791;28;20502;-63
2023/07/16 10:49:54;;;;;;;4.53;2.03;;;26.70;95.60;;;;;;5012607;28;20463;-63
2023/07/16 10:52:21;;;;;;;4.33;2.40;;;26.80;92.80;;;;;;5013839;28;20514;-63
2023/07/16 10:54:49;;;;;;;3.70;2.00;;;26.60;91.60;;;;;;5013754;28;20509;-64
2023/07/16 10:57:19;;;;;;;7.53;2.10;;;26.50;90.60;;;;;;5013870;28;20992;-64
2023/07/16 10:59:47;;;;;;;3.83;1.90;;;26.30;90.80;;;;;;5013590;28;20480;-64
2023/07/16 11:02:16;;;;;;;4.33;2.27;;;26.40;92.90;;;;;;5013481;28;20976;-64
2023/07/16 11:04:44;;;;;;;2.57;1.90;;;26.50;92.10;;;;;;5012336;28;20452;-63
2023/07/16 11:07:14;;;;;;;3.50;2.10;;;26.80;91.80;;;;;;5013372;28;20518;-64
2023/07/16 11:09:45;;;;;;;2.47;1.90;;;27.10;91.30;;;;;;5013355;28;20460;-63
2023/07/16 11:12:13;;;;;;;3.37;2.10;;;27.20;90.80;;;;;;5013278;28;20820;-64
2023/07/16 11:14:44;;;;;;;2.97;2.10;;;27.30;90.50;;;;;;5011980;28;20451;-64
2023/07/16 11:17:12;;;;;;;3.33;1.90;;;27.20;89.70;;;;;;5012887;28;20562;-64
2023/07/16 11:19:39;;;;;;;3.30;2.10;;;27.20;89.80;;;;;;5013020;28;20491;-64
2023/07/16 11:22:08;;;;;;;2.77;1.90;;;27.10;89.20;;;;;;5013129;28;20458;-63
2023/07/16 11:24:42;;;;;;;2.87;2.00;;;27.30;91.90;;;;;;5013112;28;20636;-63
2023/07/16 11:27:15;;;;;;;2.50;2.20;;;27.10;87.90;;;;;;5012855;28;20543;-63
2023/07/16 11:29:46;;;;;;;4.87;2.07;;;27.10;88.40;;;;;;5011613;28;20590;-64
2023/07/16 11:32:13;;;;;;;2.20;1.90;;;27.20;86.90;;;;;;5012997;28;20459;-64
2023/07/16 11:34:52;;;;;;;3.90;2.10;;;27.40;88.30;;;;;;5012854;28;20462;-63
2023/07/16 11:37:20;;;;;;;3.70;2.03;;;27.20;87.70;;;;;;5012898;28;20471;-63
2023/07/16 11:39:49;;;;;;;4.80;2.20;;;27.10;87.60;;;;;;5012750;28;20483;-64
2023/07/16 11:42:23;;;;;;;3.67;2.20;;;27.00;87.20;;;;;;5012673;28;20455;-64
2023/07/16 11:44:51;;;;;;;3.03;2.00;;;26.90;87.00;;;;;;5012814;28;20470;-63
2023/07/16 11:47:21;;;;;;;3.17;2.17;;;26.70;88.90;;;;;;5011557;28;21020;-63
2023/07/16 11:49:49;;;;;;;3.10;2.10;;;26.80;91.40;;;;;;5013081;28;20478;-64
2023/07/16 11:52:21;;;;;;;2.97;2.10;;;27.40;88.50;;;;;;5012886;28;20464;-63
2023/07/16 11:54:49;;;;;;;3.70;2.50;;;27.60;86.90;;;;;;5012769;28;20550;-64
2023/07/16 11:57:16;;;;;;;3.13;2.23;;;27.50;86.00;;;;;;5012463;28;21052;-64
2023/07/16 11:59:44;;;;;;;2.73;2.00;;;27.30;86.90;;;;;;5012367;28;20911;-64
2023/07/16 12:02:11;;;;;;;3.60;2.30;;;27.30;86.90;;;;;;5012341;28;20460;-64
2023/07/16 12:04:39;;;;;;;3.13;2.20;;;27.20;86.30;;;;;;5011189;28;20455;-63
2023/07/16 12:07:06;;;;;;;2.80;2.17;;;27.30;87.20;;;;;;5011075;28;20451;-64
2023/07/16 12:09:33;;;;;;;3.93;2.40;;;27.50;86.90;;;;;;5012269;28;20976;-64
2023/07/16 12:12:03;;;;;;;3.40;2.50;;;27.10;86.80;;;;;;5012369;28;20452;-64
2023/07/16 12:14:31;;;;;;;2.87;2.10;;;27.50;86.00;;;;;;5012151;28;20463;-64
2023/07/16 12:16:58;;;;;;;2.73;1.80;;;27.90;84.30;;;;;;5012133;28;20452;-64
2023/07/16 12:19:25;;;;;;;3.43;2.40;;;28.50;83.90;;;;;;5012275;28;20491;-63
2023/07/16 12:21:56;;;;;;;2.90;2.30;;;28.90;84.30;;;;;;5012031;28;20455;-64
2023/07/16 12:24:23;;;;;;;3.53;2.47;;;29.20;82.30;;;;;;5010874;28;20464;-63
2023/07/16 12:26:50;;;;;;;2.50;2.17;;;29.50;81.60;;;;;;5011980;28;20950;-64
2023/07/16 12:29:19;;;;;;;2.97;2.27;;;29.80;80.90;;;;;;5011348;28;20447;-64
2023/07/16 12:31:46;;;;;;;4.27;2.23;;;30.20;82.70;;;;;;5012203;28;20455;-64
2023/07/16 12:34:13;;;;;;;3.00;2.47;;;30.60;82.00;;;;;;5011992;28;20775;-64
2023/07/16 12:36:40;;;;;;;3.97;2.67;;;30.50;78.50;;;;;;5010627;28;20459;-63
2023/07/16 12:39:07;;;;;;;5.00;2.30;;;30.80;79.60;;;;;;5012042;28;20530;-63
2023/07/16 12:41:34;;;;;;;2.87;2.10;;;30.70;78.00;;;;;;5012127;28;20856;-64
2023/07/16 12:44:01;;;;;;;4.20;2.60;;;30.80;78.30;;;;;;5012144;28;20459;-64
2023/07/16 12:46:31;;;;;;;2.73;2.07;;;30.90;77.70;;;;;;5011691;28;20462;-64
2023/07/16 12:48:58;;;;;;;3.67;2.80;;;31.00;78.40;;;;;;5011682;28;20456;-64
2023/07/16 12:51:25;;;;;;;2.93;2.33;;;31.10;76.60;;;;;;5011748;28;20455;-64
2023/07/16 12:53:52;;;;;;;2.83;2.37;;;31.30;78.00;;;;;;5011674;28;20464;-64